Time;durP1;ratioP1;P1;durP2;ratioP2;P2;SDS_P1;SDS_P2;PMS_P1;PMS_P2;Temp;Humidity;BMP_temperature;BMP_pressure;BME280_temperature;BME280_humidity;BME280_pressure;Samples;Min_cycle;Max_cycle;Signal;HPM_P1;HPM_P2
2024/02/15 00:01:51;;;;;;;3.60;3.30;;;;;;;3.15;100.00;100826.25;87479;268;136190;-77
2024/02/15 00:03:53;;;;;;;3.00;2.80;;;;;;;3.20;100.00;100830.92;87475;272;25102;-77
2024/02/15 00:05:55;;;;;;;4.90;3.30;;;;;;;3.21;100.00;100829.56;87591;274;136210;-77
2024/02/15 00:07:57;;;;;;;2.10;2.00;;;;;;;3.20;100.00;100827.03;87449;264;25278;-79
2024/02/15 00:09:59;;;;;;;2.50;2.40;;;;;;;3.17;100.00;100823.23;87566;271;136372;-81
2024/02/15 00:12:00;;;;;;;2.90;2.60;;;;;;;3.14;100.00;100826.45;87532;268;24122;-78
2024/02/15 00:14:02;;;;;;;1.80;1.70;;;;;;;3.13;100.00;100833.20;87401;280;136938;-80
2024/02/15 00:16:04;;;;;;;3.20;2.80;;;;;;;3.14;100.00;100838.45;87532;268;138134;-77
2024/02/15 00:18:07;;;;;;;3.70;3.40;;;;;;;3.14;100.00;100836.65;87729;280;22562;-77
2024/02/15 00:20:09;;;;;;;3.40;3.10;;;;;;;3.15;100.00;100837.07;87625;271;137051;-78
2024/02/15 00:22:11;;;;;;;2.80;2.60;;;;;;;3.14;100.00;100838.75;87648;264;23983;-76
2024/02/15 00:24:14;;;;;;;3.00;2.80;;;;;;;3.11;100.00;100835.15;87307;273;136436;-78
2024/02/15 00:26:16;;;;;;;3.30;2.50;;;;;;;3.12;100.00;100838.96;87785;270;23672;-78
2024/02/15 00:28:18;;;;;;;3.10;2.90;;;;;;;3.14;100.00;100840.37;87317;274;136286;-79
2024/02/15 00:30:21;;;;;;;2.50;2.30;;;;;;;3.17;100.00;100837.80;87472;268;22677;-80
2024/02/15 00:32:24;;;;;;;3.00;2.70;;;;;;;3.15;100.00;100833.39;87322;268;137284;-78
2024/02/15 00:34:27;;;;;;;3.10;2.80;;;;;;;3.14;100.00;100837.23;87736;267;25275;-80
2024/02/15 00:36:29;;;;;;;2.20;2.00;;;;;;;3.12;100.00;100837.69;87802;271;137264;-79
2024/02/15 00:38:35;;;;;;;3.40;3.20;;;;;;;3.08;100.00;100841.53;87729;267;22576;-76
2024/02/15 00:40:37;;;;;;;3.90;3.40;;;;;;;3.07;100.00;100840.27;87501;275;136099;-76
2024/02/15 00:42:40;;;;;;;2.90;2.70;;;;;;;3.07;100.00;100841.59;87596;279;22686;-78
2024/02/15 00:44:41;;;;;;;3.00;2.70;;;;;;;3.06;100.00;100839.41;87531;280;136243;-79
2024/02/15 00:46:43;;;;;;;3.80;3.50;;;;;;;3.05;100.00;100842.32;87629;267;23752;-78
2024/02/15 00:48:45;;;;;;;2.80;2.60;;;;;;;3.01;100.00;100841.27;87645;274;136204;-78
2024/02/15 00:50:48;;;;;;;3.30;3.00;;;;;;;3.02;100.00;100844.87;87650;267;22568;-78
2024/02/15 00:52:50;;;;;;;3.40;3.10;;;;;;;3.01;100.00;100841.95;87645;271;136044;-78
2024/02/15 00:54:51;;;;;;;3.00;2.80;;;;;;;3.00;100.00;100844.30;87666;269;22691;-78
2024/02/15 00:56:53;;;;;;;3.50;3.20;;;;;;;2.99;100.00;100843.39;87814;270;136398;-78
2024/02/15 00:58:55;;;;;;;2.10;2.00;;;;;;;2.98;100.00;100844.99;87729;278;22553;-78
2024/02/15 01:00:57;;;;;;;3.30;3.00;;;;;;;2.95;100.00;100847.35;87465;275;136199;-78
2024/02/15 01:02:59;;;;;;;4.10;3.80;;;;;;;2.92;100.00;100846.92;87950;271;22980;-78
2024/02/15 01:05:01;;;;;;;3.70;3.20;;;;;;;2.90;100.00;100847.44;87739;271;136322;-77
2024/02/15 01:07:03;;;;;;;3.70;3.40;;;;;;;2.89;100.00;100852.54;87690;267;22844;-78
2024/02/15 01:09:05;;;;;;;3.90;3.60;;;;;;;2.88;100.00;100849.54;87674;273;136237;-76
2024/02/15 01:11:09;;;;;;;5.80;5.10;;;;;;;2.85;100.00;100850.80;87753;274;25197;-77
2024/02/15 01:13:12;;;;;;;4.80;4.30;;;;;;;2.85;100.00;100852.75;87749;270;136363;-78
2024/02/15 01:15:18;;;;;;;5.50;4.90;;;;;;;2.84;100.00;100849.63;87734;279;22550;-76
2024/02/15 01:17:20;;;;;;;6.30;3.80;;;;;;;2.84;100.00;100853.71;87963;274;136551;-80
2024/02/15 01:19:21;;;;;;;5.30;4.70;;;;;;;2.85;100.00;100855.55;87674;271;23998;-76
2024/02/15 01:21:23;;;;;;;4.50;3.50;;;;;;;2.85;100.00;100854.85;87692;278;137590;-77
2024/02/15 01:23:26;;;;;;;6.30;4.20;;;;;;;2.82;100.00;100853.14;88007;268;22698;-77
2024/02/15 01:25:28;;;;;;;4.00;3.60;;;;;;;2.81;100.00;100853.97;88137;275;137546;-78
2024/02/15 01:27:30;;;;;;;5.30;4.10;;;;;;;2.81;100.00;100849.75;88509;271;22531;-79
2024/02/15 01:29:32;;;;;;;3.80;3.40;;;;;;;2.86;100.00;100850.40;87871;271;137167;-79
2024/02/15 01:31:33;;;;;;;3.10;2.80;;;;;;;2.88;100.00;100850.92;87839;275;23739;-77
2024/02/15 01:33:36;;;;;;;3.60;3.30;;;;;;;2.90;100.00;100850.90;87690;267;137527;-77
2024/02/15 01:35:38;;;;;;;3.90;3.60;;;;;;;2.89;100.00;100851.36;87524;275;22605;-76
2024/02/15 01:37:40;;;;;;;3.30;2.90;;;;;;;2.85;100.00;100851.02;87804;267;137530;-77
2024/02/15 01:39:42;;;;;;;3.20;2.90;;;;;;;2.80;100.00;100855.23;87727;267;25297;-76
2024/02/15 01:41:50;;;;;;;4.30;3.00;;;;;;;2.76;100.00;100854.19;88261;268;136208;-75
2024/02/15 01:43:53;;;;;;;3.10;2.80;;;;;;;2.73;100.00;100854.77;89138;279;22552;-75
2024/02/15 01:46:00;;;;;;;3.30;3.10;;;;;;;2.72;100.00;100856.23;88817;267;137579;-78
2024/02/15 01:48:03;;;;;;;4.10;3.70;;;;;;;2.72;100.00;100857.67;88483;272;25121;-75
2024/02/15 01:50:07;;;;;;;3.50;3.20;;;;;;;2.72;100.00;100862.75;88373;271;22556;-74
2024/02/15 01:52:09;;;;;;;2.70;1.60;;;;;;;2.73;100.00;100858.13;88398;267;136790;-77
2024/02/15 01:54:13;;;;;;;4.90;3.50;;;;;;;2.76;100.00;100851.74;88399;274;22648;-75
2024/02/15 01:56:17;;;;;;;6.50;4.00;;;;;;;2.79;100.00;100849.01;88383;266;136413;-75
2024/02/15 01:58:19;;;;;;;3.20;3.00;;;;;;;2.81;100.00;100849.53;88136;271;22867;-77
2024/02/15 02:00:22;;;;;;;3.50;3.10;;;;;;;2.82;100.00;100850.31;87865;264;136990;-75
2024/02/15 02:02:27;;;;;;;2.80;2.40;;;;;;;2.83;100.00;100854.66;87702;271;23883;-78
2024/02/15 02:04:31;;;;;;;4.00;3.60;;;;;;;2.82;100.00;100846.69;87962;272;137862;-75
2024/02/15 02:06:33;;;;;;;8.20;3.70;;;;;;;2.81;100.00;100844.46;88378;271;22559;-75
2024/02/15 02:08:35;;;;;;;3.40;3.20;;;;;;;2.81;100.00;100847.45;87827;274;137996;-75
2024/02/15 02:10:37;;;;;;;4.30;3.80;;;;;;;2.81;100.00;100845.39;87895;271;22513;-74
2024/02/15 02:12:40;;;;;;;4.00;3.30;;;;;;;2.81;100.00;100843.98;87928;267;137596;-73
2024/02/15 02:14:42;;;;;;;4.70;3.70;;;;;;;2.82;100.00;100846.34;87737;267;22559;-76
2024/02/15 02:16:46;;;;;;;4.30;4.00;;;;;;;2.83;100.00;100849.90;87585;271;136693;-73
2024/02/15 02:18:48;;;;;;;3.40;3.10;;;;;;;2.83;100.00;100850.65;87611;272;25129;-73
2024/02/15 02:20:50;;;;;;;3.80;3.40;;;;;;;2.81;100.00;100850.48;87535;273;137696;-74
2024/02/15 02:22:55;;;;;;;4.10;3.10;;;;;;;2.78;100.00;100845.45;87659;275;22570;-75
2024/02/15 02:25:08;;;;;;;4.30;3.90;;;;;;;2.77;100.00;100845.30;87683;278;136674;-75
2024/02/15 02:27:12;;;;;;;5.60;3.20;;;;;;;2.76;100.00;100845.74;87686;263;25088;-73
2024/02/15 02:29:16;;;;;;;4.90;4.50;;;;;;;2.74;100.00;100847.86;87419;277;136484;-74
2024/02/15 02:31:17;;;;;;;4.70;3.80;;;;;;;2.72;100.00;100848.04;87382;273;25181;-74
2024/02/15 02:33:22;;;;;;;4.50;3.50;;;;;;;2.71;100.00;100851.77;87442;280;137323;-75
2024/02/15 02:35:26;;;;;;;5.20;4.10;;;;;;;2.66;100.00;100853.70;87658;268;22575;-76
2024/02/15 02:37:29;;;;;;;7.20;3.20;;;;;;;2.67;100.00;100858.21;87442;276;136661;-73
2024/02/15 02:39:31;;;;;;;2.10;2.00;;;;;;;2.67;100.00;100861.59;87601;267;22541;-77
2024/02/15 02:41:33;;;;;;;4.90;3.90;;;;;;;2.65;100.00;100861.77;87511;276;136431;-74
2024/02/15 02:43:35;;;;;;;4.30;3.90;;;;;;;2.63;100.00;100865.45;87495;272;25188;-76
2024/02/15 02:45:37;;;;;;;3.90;3.60;;;;;;;2.65;100.00;100867.36;87506;273;136239;-75
2024/02/15 02:47:39;;;;;;;3.60;3.10;;;;;;;2.69;100.00;100862.31;87674;268;23343;-74
2024/02/15 02:49:42;;;;;;;5.50;4.10;;;;;;;2.73;100.00;100862.13;87768;279;136573;-75
2024/02/15 02:51:44;;;;;;;4.40;3.90;;;;;;;2.77;100.00;100863.95;87560;279;23770;-75
2024/02/15 02:53:46;;;;;;;4.50;3.50;;;;;;;2.78;100.00;100866.46;87568;271;137679;-73
2024/02/15 02:55:49;;;;;;;4.00;3.60;;;;;;;2.79;100.00;100870.60;87610;279;23954;-77
2024/02/15 02:57:52;;;;;;;5.80;4.30;;;;;;;2.79;100.00;100875.02;87660;271;137012;-74
2024/02/15 02:59:54;;;;;;;4.60;3.80;;;;;;;2.80;100.00;100878.59;87621;267;23842;-75
2024/02/15 03:01:57;;;;;;;3.70;3.40;;;;;;;2.80;100.00;100878.94;87698;275;136761;-76
2024/02/15 03:03:59;;;;;;;5.90;4.20;;;;;;;2.77;100.00;100879.06;87680;272;22610;-74
2024/02/15 03:06:01;;;;;;;5.30;4.80;;;;;;;2.80;100.00;100879.98;87724;277;136590;-73
2024/02/15 03:08:04;;;;;;;4.10;3.60;;;;;;;2.85;100.00;100882.08;87418;273;137988;-73
2024/02/15 03:10:09;;;;;;;4.10;3.60;;;;;;;2.85;100.00;100885.54;87583;268;24088;-73
2024/02/15 03:12:11;;;;;;;6.50;3.90;;;;;;;2.87;100.00;100889.25;87481;280;137246;-73
2024/02/15 03:14:13;;;;;;;4.90;4.30;;;;;;;2.88;100.00;100892.00;87544;269;22697;-72
2024/02/15 03:16:16;;;;;;;4.20;3.70;;;;;;;2.89;100.00;100889.92;87382;272;136974;-75
2024/02/15 03:18:18;;;;;;;4.20;3.50;;;;;;;2.92;100.00;100893.03;87723;268;26566;-73
2024/02/15 03:20:20;;;;;;;4.50;3.90;;;;;;;2.93;100.00;100889.65;87403;271;136693;-73
2024/02/15 03:22:25;;;;;;;5.10;3.80;;;;;;;2.89;100.00;100889.45;87681;271;22665;-75
2024/02/15 03:24:27;;;;;;;4.30;3.70;;;;;;;2.85;100.00;100896.43;87566;271;136594;-73
2024/02/15 03:26:42;;;;;;;4.30;3.40;;;;;;;2.84;100.00;100891.65;87641;272;23050;-73
2024/02/15 03:28:44;;;;;;;6.70;3.70;;;;;;;2.81;100.00;100892.40;87402;269;136454;-74
2024/02/15 03:30:46;;;;;;;3.10;2.60;;;;;;;2.81;100.00;100896.27;87564;272;25119;-73
2024/02/15 03:32:50;;;;;;;2.60;2.40;;;;;;;2.89;100.00;100898.95;87289;273;138067;-73
2024/02/15 03:34:54;;;;;;;3.60;2.90;;;;;;;2.91;100.00;100897.89;87486;272;25258;-75
2024/02/15 03:36:56;;;;;;;5.80;3.60;;;;;;;2.92;100.00;100901.48;87439;279;137696;-74
2024/02/15 03:38:57;;;;;;;4.70;3.70;;;;;;;2.96;100.00;100904.22;87570;271;22581;-72
2024/02/15 03:40:59;;;;;;;3.70;3.30;;;;;;;2.99;100.00;100906.59;87373;272;136658;-74
2024/02/15 03:43:06;;;;;;;3.60;2.60;;;;;;;3.00;100.00;100909.86;87676;272;24257;-73
2024/02/15 03:45:09;;;;;;;4.00;3.40;;;;;;;3.00;100.00;100914.00;87490;267;138688;-74
2024/02/15 03:47:13;;;;;;;6.30;4.40;;;;;;;2.90;100.00;100914.48;87461;268;24644;-74
2024/02/15 03:49:15;;;;;;;3.50;3.20;;;;;;;2.85;100.00;100917.35;87569;271;137957;-72
2024/02/15 03:51:22;;;;;;;4.60;4.20;;;;;;;2.83;100.00;100918.89;87682;264;24000;-72
2024/02/15 03:53:24;;;;;;;3.60;3.30;;;;;;;2.80;100.00;100919.14;87567;268;137728;-73
2024/02/15 03:55:26;;;;;;;4.10;3.10;;;;;;;2.74;100.00;100917.67;87690;268;22576;-73
2024/02/15 03:57:29;;;;;;;3.20;2.90;;;;;;;2.70;100.00;100920.81;87404;279;138177;-73
2024/02/15 03:59:32;;;;;;;3.60;2.90;;;;;;;2.66;100.00;100919.94;87973;272;22513;-75
2024/02/15 04:01:34;;;;;;;4.90;4.10;;;;;;;2.64;100.00;100919.23;87876;279;136440;-73
2024/02/15 04:03:36;;;;;;;3.40;3.10;;;;;;;2.62;100.00;100925.02;87480;272;25121;-73
2024/02/15 04:05:38;;;;;;;3.60;2.50;;;;;;;2.60;100.00;100924.97;87562;276;137993;-74
2024/02/15 04:07:40;;;;;;;3.30;2.90;;;;;;;2.58;100.00;100926.57;87941;268;22562;-73
2024/02/15 04:09:42;;;;;;;3.60;3.30;;;;;;;2.54;100.00;100928.77;87455;273;136267;-72
2024/02/15 04:11:47;;;;;;;4.40;4.00;;;;;;;2.50;100.00;100927.98;87561;268;22575;-72
2024/02/15 04:13:48;;;;;;;4.30;3.70;;;;;;;2.47;100.00;100928.05;87593;274;136745;-77
2024/02/15 04:15:52;;;;;;;3.50;3.20;;;;;;;2.47;100.00;100931.05;87630;278;22520;-74
2024/02/15 04:17:56;;;;;;;4.40;4.00;;;;;;;2.47;100.00;100937.91;87495;275;137574;-73
2024/02/15 04:19:58;;;;;;;6.60;3.50;;;;;;;2.47;100.00;100936.89;87643;272;25185;-76
2024/02/15 04:22:00;;;;;;;4.00;3.60;;;;;;;2.46;100.00;100938.84;87824;271;136414;-75
2024/02/15 04:24:02;;;;;;;5.20;4.10;;;;;;;2.49;100.00;100937.27;87580;278;22545;-74
2024/02/15 04:26:04;;;;;;;3.70;3.40;;;;;;;2.51;100.00;100934.62;87514;263;25233;-75
2024/02/15 04:28:08;;;;;;;5.80;5.10;;;;;;;2.53;100.00;100935.70;87445;267;137760;-73
2024/02/15 04:30:10;;;;;;;3.00;2.80;;;;;;;2.55;100.00;100932.73;87516;270;22581;-75
2024/02/15 04:32:13;;;;;;;3.60;3.30;;;;;;;2.56;100.00;100936.14;87405;274;138069;-72
2024/02/15 04:34:18;;;;;;;3.10;2.90;;;;;;;2.53;100.00;100932.85;87822;271;22711;-76
2024/02/15 04:36:25;;;;;;;5.90;5.00;;;;;;;2.49;100.00;100933.19;87444;268;136693;-75
2024/02/15 04:38:26;;;;;;;5.60;3.80;;;;;;;2.47;100.00;100933.55;87678;267;22620;-74
2024/02/15 04:40:28;;;;;;;6.30;4.70;;;;;;;2.43;100.00;100932.05;87529;278;137115;-74
2024/02/15 04:42:32;;;;;;;3.60;3.30;;;;;;;2.41;100.00;100936.31;87594;266;23080;-74
2024/02/15 04:44:35;;;;;;;9.10;5.60;;;;;;;2.38;100.00;100938.63;87684;274;139021;-78
2024/02/15 04:46:37;;;;;;;4.30;3.90;;;;;;;2.36;100.00;100939.98;87867;270;22517;-77
2024/02/15 04:48:41;;;;;;;5.20;3.60;;;;;;;2.37;100.00;100941.19;87543;261;137730;-75
2024/02/15 04:50:43;;;;;;;4.10;3.70;;;;;;;2.38;100.00;100945.45;87450;275;22562;-76
2024/02/15 04:52:46;;;;;;;6.40;5.00;;;;;;;2.40;100.00;100945.15;87469;270;136773;-74
2024/02/15 04:54:48;;;;;;;3.50;3.20;;;;;;;2.39;100.00;100948.91;87464;271;22559;-76
2024/02/15 04:56:54;;;;;;;4.60;3.90;;;;;;;2.39;100.00;100950.48;87401;270;136715;-77
2024/02/15 04:58:56;;;;;;;5.00;4.50;;;;;;;2.37;100.00;100956.76;87788;268;23237;-73
2024/02/15 05:00:59;;;;;;;5.10;4.70;;;;;;;2.36;100.00;100958.96;87573;272;136582;-72
2024/02/15 05:03:02;;;;;;;5.30;4.50;;;;;;;2.39;100.00;100958.22;87505;272;25220;-74
2024/02/15 05:05:04;;;;;;;6.20;4.60;;;;;;;2.42;100.00;100959.89;87297;274;136413;-73
2024/02/15 05:07:06;;;;;;;5.60;4.80;;;;;;;2.43;100.00;100960.35;87713;272;25217;-74
2024/02/15 05:09:10;;;;;;;5.90;4.40;;;;;;;2.43;100.00;100959.80;87432;268;136288;-75
2024/02/15 05:11:17;;;;;;;;;;;;;;;2.40;100.00;100961.44;87635;275;22511;-74
2024/02/15 05:13:19;;;;;;;4.80;4.20;;;;;;;2.38;100.00;100966.51;87493;271;124041;-73
2024/02/15 05:15:24;;;;;;;8.00;5.70;;;;;;;2.37;100.00;100968.86;87823;271;22572;-75
2024/02/15 05:17:31;;;;;;;4.40;4.00;;;;;;;2.37;100.00;100969.55;87588;276;139719;-77
2024/02/15 05:19:35;;;;;;;7.20;5.50;;;;;;;2.40;100.00;100971.78;87244;266;22648;-77
2024/02/15 05:21:37;;;;;;;6.80;4.90;;;;;;;2.43;100.00;100971.94;87654;272;136861;-76
2024/02/15 05:23:39;;;;;;;6.60;4.70;;;;;;;2.44;100.00;100977.22;87604;272;22560;-79
2024/02/15 05:25:41;;;;;;;6.50;5.20;;;;;;;2.46;100.00;100976.95;87801;267;139121;-77
2024/02/15 05:27:44;;;;;;;8.20;5.10;;;;;;;2.45;100.00;100982.10;87849;275;22720;-76
2024/02/15 05:29:46;;;;;;;4.60;4.10;;;;;;;2.39;100.00;100981.84;87809;271;136399;-78
2024/02/15 05:31:50;;;;;;;4.20;3.70;;;;;;;2.35;100.00;100983.27;87827;278;25082;-77
2024/02/15 05:33:53;;;;;;;4.30;3.60;;;;;;;2.31;100.00;100982.85;87590;272;137175;-77
2024/02/15 05:35:55;;;;;;;6.20;4.90;;;;;;;2.29;100.00;100986.67;87755;267;22562;-76
2024/02/15 05:37:57;;;;;;;5.30;4.30;;;;;;;2.30;100.00;100984.50;87506;272;137199;-79
2024/02/15 05:39:59;;;;;;;5.00;4.60;;;;;;;2.31;100.00;100984.79;87581;272;25252;-76
2024/02/15 05:42:01;;;;;;;5.20;3.80;;;;;;;2.33;100.00;100983.17;87669;262;136629;-76
2024/02/15 05:44:06;;;;;;;5.90;4.10;;;;;;;2.35;100.00;100988.29;87747;274;136942;-76
2024/02/15 05:46:09;;;;;;;8.30;5.80;;;;;;;2.38;100.00;100988.98;88089;278;22636;-78
2024/02/15 05:48:12;;;;;;;4.20;3.90;;;;;;;2.40;100.00;100987.95;87825;274;136954;-81
2024/02/15 05:50:15;;;;;;;5.60;5.10;;;;;;;2.38;100.00;100988.77;87934;266;25130;-77
2024/02/15 05:52:18;;;;;;;5.00;4.50;;;;;;;2.39;100.00;100989.79;87614;262;136892;-75
2024/02/15 05:54:22;;;;;;;6.90;4.70;;;;;;;2.41;100.00;100990.67;87690;271;24010;-77
2024/02/15 05:56:26;;;;;;;5.40;4.80;;;;;;;2.44;100.00;100991.49;87916;266;137388;-79
2024/02/15 05:58:27;;;;;;;7.70;4.90;;;;;;;2.46;100.00;100993.91;87930;277;22559;-77
2024/02/15 06:00:30;;;;;;;6.80;5.50;;;;;;;2.49;100.00;100995.69;87680;270;137906;-76
2024/02/15 06:02:32;;;;;;;5.00;4.50;;;;;;;2.48;100.00;100999.55;87725;269;22648;-78
2024/02/15 06:04:34;;;;;;;7.20;5.90;;;;;;;2.48;100.00;100998.69;87676;278;136587;-76
2024/02/15 06:06:36;;;;;;;5.60;4.80;;;;;;;2.50;100.00;100997.33;87730;271;25111;-75
2024/02/15 06:08:38;;;;;;;7.20;6.30;;;;;;;2.52;100.00;100999.98;87859;278;136615;-78
2024/02/15 06:10:40;;;;;;;7.20;4.30;;;;;;;2.56;100.00;101002.46;87791;269;22552;-77
2024/02/15 06:12:42;;;;;;;7.50;5.80;;;;;;;2.60;100.00;101003.79;87917;269;137765;-75
2024/02/15 06:14:44;;;;;;;8.50;6.70;;;;;;;2.61;100.00;101010.56;87792;266;23660;-79
2024/02/15 06:16:46;;;;;;;8.70;6.50;;;;;;;2.62;100.00;101009.04;89128;288;136243;-78
2024/02/15 06:18:48;;;;;;;7.90;6.60;;;;;;;2.63;100.00;101010.68;89351;273;22896;-75
2024/02/15 06:20:50;;;;;;;6.60;5.90;;;;;;;2.64;100.00;101015.53;88133;278;136605;-78
2024/02/15 06:22:56;;;;;;;7.40;6.50;;;;;;;2.63;100.00;101017.55;87912;276;22558;-75
2024/02/15 06:24:58;;;;;;;8.70;7.80;;;;;;;2.60;100.00;101020.06;87810;278;136420;-79
2024/02/15 06:27:01;;;;;;;7.20;6.00;;;;;;;2.59;100.00;101021.05;87660;272;22554;-78
2024/02/15 06:40:54;;;;;;;5.10;4.60;;;;;;;2.66;100.00;101030.98;88385;267;584644;-77
2024/02/15 06:42:56;;;;;;;5.50;4.60;;;;;;;2.72;100.00;101032.96;88196;273;22662;-77
2024/02/15 06:44:57;;;;;;;4.40;4.00;;;;;;;2.76;100.00;101033.61;88532;267;136801;-78
2024/02/15 06:47:00;;;;;;;5.50;5.10;;;;;;;2.77;100.00;101037.73;87821;272;24166;-79
2024/02/15 06:49:02;;;;;;;5.20;4.80;;;;;;;2.75;100.00;101044.17;87560;274;137915;-77
2024/02/15 06:51:05;;;;;;;5.80;5.20;;;;;;;2.70;100.00;101044.16;87673;278;25182;-78
2024/02/15 06:53:08;;;;;;;4.80;4.50;;;;;;;2.67;100.00;101046.83;87568;270;136532;-76
2024/02/15 06:55:14;;;;;;;5.10;4.60;;;;;;;2.68;100.00;101048.03;87838;269;25342;-76
2024/02/15 06:57:16;;;;;;;6.80;5.00;;;;;;;2.71;100.00;101048.67;87844;266;136542;-78
2024/02/15 06:59:19;;;;;;;5.10;4.10;;;;;;;2.75;100.00;101044.86;87130;267;22567;-78
2024/02/15 07:01:24;;;;;;;5.30;4.70;;;;;;;2.79;100.00;101043.52;87687;271;136716;-79
2024/02/15 07:03:29;;;;;;;4.80;4.30;;;;;;;2.79;100.00;101047.55;87743;271;25025;-78
2024/02/15 07:05:31;;;;;;;;;;;;;;;2.77;100.00;101044.23;87854;274;136647;-77
2024/02/15 07:07:34;;;;;;;6.10;5.30;;;;;;;2.75;100.00;101047.50;87507;272;22565;-78
2024/02/15 07:09:36;;;;;;;5.30;4.80;;;;;;;2.73;100.00;101048.19;87692;280;136671;-79
2024/02/15 07:11:37;;;;;;;9.80;5.70;;;;;;;2.71;100.00;101048.89;87824;276;24264;-80
2024/02/15 07:13:39;;;;;;;4.30;3.90;;;;;;;2.65;100.00;101047.77;87402;276;138202;-77
2024/02/15 07:15:42;;;;;;;5.30;4.90;;;;;;;2.58;100.00;101045.11;87892;279;24014;-79
2024/02/15 07:17:43;;;;;;;6.10;5.60;;;;;;;2.52;100.00;101049.44;87762;276;137857;-78
2024/02/15 07:19:49;;;;;;;7.00;5.90;;;;;;;2.48;100.00;101049.41;87726;267;22589;-80
2024/02/15 07:21:51;;;;;;;5.30;4.80;;;;;;;2.44;100.00;101047.43;87503;269;137976;-77
2024/02/15 07:23:56;;;;;;;6.00;5.20;;;;;;;2.37;100.00;101049.88;87754;269;22595;-80
2024/02/15 07:25:58;;;;;;;6.70;5.10;;;;;;;2.30;100.00;101047.67;87814;266;137770;-76
2024/02/15 07:28:00;;;;;;;5.90;5.30;;;;;;;2.30;100.00;101046.70;87567;274;22643;-69
2024/02/15 07:30:03;;;;;;;5.70;5.20;;;;;;;2.32;100.00;101048.70;87036;274;136942;-69
2024/02/15 07:32:06;;;;;;;6.40;5.80;;;;;;;2.29;100.00;101047.52;87873;267;136717;-77
2024/02/15 07:34:08;;;;;;;5.40;4.90;;;;;;;2.31;100.00;101048.77;87748;270;24351;-77
2024/02/15 07:36:10;;;;;;;5.90;4.50;;;;;;;2.35;100.00;101044.46;87673;268;137052;-79
2024/02/15 07:38:12;;;;;;;8.40;6.40;;;;;;;2.31;100.00;101046.47;87796;274;22556;-79
2024/02/15 07:40:14;;;;;;;7.90;5.60;;;;;;;2.31;100.00;101042.79;87538;276;136636;-77
2024/02/15 07:42:16;;;;;;;5.60;4.90;;;;;;;2.33;100.00;101049.14;87802;276;22559;-75
2024/02/15 07:44:18;;;;;;;6.60;5.70;;;;;;;2.36;100.00;101051.20;88033;268;136622;-77
2024/02/15 07:46:20;;;;;;;7.10;6.40;;;;;;;2.40;100.00;101053.73;87308;271;22713;-79
2024/02/15 07:48:22;;;;;;;7.40;6.80;;;;;;;2.45;100.00;101058.75;87838;268;136955;-76
2024/02/15 07:50:24;;;;;;;6.10;5.50;;;;;;;2.48;100.00;101055.73;87661;271;25150;-78
2024/02/15 07:52:25;;;;;;;7.10;5.80;;;;;;;2.47;100.00;101058.27;87706;271;136603;-78
2024/02/15 07:54:29;;;;;;;8.30;6.80;;;;;;;2.46;100.00;101062.85;87622;274;23250;-77
2024/02/15 07:56:31;;;;;;;6.00;5.40;;;;;;;2.45;100.00;101064.20;87625;270;137666;-76
2024/02/15 07:58:33;;;;;;;5.70;5.20;;;;;;;2.46;100.00;101067.98;87890;273;23447;-75
2024/02/15 08:00:35;;;;;;;6.80;6.20;;;;;;;2.45;100.00;101068.70;87703;273;137994;-74
2024/02/15 08:02:40;;;;;;;6.80;6.20;;;;;;;2.47;100.00;101069.42;87788;270;22869;-77
2024/02/15 08:04:44;;;;;;;7.40;5.60;;;;;;;2.46;100.00;101072.16;87760;274;136492;-76
2024/02/15 08:06:48;;;;;;;6.40;5.80;;;;;;;2.47;100.00;101071.77;87645;275;23340;-78
2024/02/15 08:08:52;;;;;;;7.50;6.80;;;;;;;2.48;100.00;101068.38;87514;276;137009;-79
2024/02/15 08:10:55;;;;;;;6.30;5.20;;;;;;;2.50;100.00;101074.29;87787;271;22602;-77
2024/02/15 08:12:58;;;;;;;6.30;5.40;;;;;;;2.48;100.00;101074.14;87928;279;138565;-81
2024/02/15 08:15:00;;;;;;;5.20;4.80;;;;;;;2.47;100.00;101074.19;88537;267;23211;-75
2024/02/15 08:17:02;;;;;;;5.90;5.40;;;;;;;2.50;100.00;101075.94;87702;270;136421;-76
2024/02/15 08:19:05;;;;;;;7.70;6.90;;;;;;;2.52;100.00;101078.05;87775;270;23724;-76
2024/02/15 08:21:07;;;;;;;8.90;6.50;;;;;;;2.52;100.00;101080.16;88038;270;136109;-76
2024/02/15 08:23:10;;;;;;;7.20;5.90;;;;;;;2.51;100.00;101078.96;87600;265;22553;-77
2024/02/15 08:25:15;;;;;;;6.70;6.00;;;;;;;2.54;100.00;101079.68;87920;268;137521;-77
2024/02/15 08:27:16;;;;;;;6.30;5.10;;;;;;;2.54;100.00;101078.23;87799;276;22618;-75
2024/02/15 08:29:19;;;;;;;6.40;5.90;;;;;;;2.56;100.00;101083.20;87522;266;136829;-75
2024/02/15 08:31:21;;;;;;;6.50;5.90;;;;;;;2.58;100.00;101079.39;88651;266;22549;-76
2024/02/15 08:33:28;;;;;;;10.30;6.30;;;;;;;2.61;100.00;101086.17;89566;266;136384;-76
2024/02/15 08:35:30;;;;;;;6.50;5.70;;;;;;;2.63;100.00;101081.23;89665;265;23256;-78
2024/02/15 08:37:34;;;;;;;7.00;6.40;;;;;;;2.65;100.00;101085.80;88136;273;136390;-74
2024/02/15 08:39:36;;;;;;;7.60;6.90;;;;;;;2.64;100.00;101088.58;87739;269;22545;-75
2024/02/15 08:41:38;;;;;;;5.90;5.10;;;;;;;2.65;100.00;101090.44;87615;277;136829;-77
2024/02/15 08:43:41;;;;;;;6.60;5.00;;;;;;;2.66;100.00;101090.00;87704;270;25290;-76
2024/02/15 08:45:46;;;;;;;6.50;5.90;;;;;;;2.67;100.00;101091.65;87228;274;136983;-77
2024/02/15 08:47:49;;;;;;;6.70;5.30;;;;;;;2.70;100.00;101091.79;87732;271;25284;-78
2024/02/15 08:49:51;;;;;;;7.20;6.20;;;;;;;2.74;100.00;101089.84;87841;267;136643;-74
2024/02/15 08:51:53;;;;;;;8.00;6.70;;;;;;;2.79;100.00;101089.46;87873;272;22567;-78
2024/02/15 08:53:56;;;;;;;6.10;5.50;;;;;;;2.85;100.00;101092.73;87415;279;137047;-74
2024/02/15 08:56:00;;;;;;;6.80;4.70;;;;;;;2.87;100.00;101096.77;87722;266;23353;-77
2024/02/15 08:58:03;;;;;;;8.30;6.50;;;;;;;2.87;100.00;101099.38;87632;269;22567;-75
2024/02/15 09:00:13;;;;;;;7.30;6.00;;;;;;;2.82;100.00;101098.17;87639;270;137012;-76
2024/02/15 09:02:15;;;;;;;7.00;5.40;;;;;;;2.76;100.00;101107.13;87843;271;22556;-76
2024/02/15 09:04:17;;;;;;;6.10;5.50;;;;;;;2.71;100.00;101112.38;87634;267;136789;-75
2024/02/15 09:06:19;;;;;;;7.50;6.70;;;;;;;2.70;100.00;101114.38;87636;275;25393;-78
2024/02/15 09:08:21;;;;;;;7.30;5.20;;;;;;;2.73;100.00;101117.84;87609;271;137531;-79
2024/02/15 09:10:23;;;;;;;6.00;5.40;;;;;;;2.75;100.00;101119.83;87557;273;22658;-77
2024/02/15 09:12:25;;;;;;;6.30;4.60;;;;;;;2.75;100.00;101122.09;87449;279;137199;-74
2024/02/15 09:14:27;;;;;;;7.70;6.90;;;;;;;2.71;100.00;101122.38;87683;275;22579;-76
2024/02/15 09:16:31;;;;;;;6.60;5.90;;;;;;;2.74;100.00;101122.15;87493;276;137652;-73
2024/02/15 09:18:33;;;;;;;5.60;4.50;;;;;;;2.78;100.00;101123.23;87659;271;24081;-77
2024/02/15 09:20:37;;;;;;;6.50;5.90;;;;;;;2.80;100.00;101125.59;87476;276;139029;-77
2024/02/15 09:22:43;;;;;;;6.80;5.90;;;;;;;2.79;100.00;101125.14;87656;272;23779;-75
2024/02/15 09:24:44;;;;;;;7.40;6.70;;;;;;;2.81;100.00;101125.86;87486;278;136695;-78
2024/02/15 09:26:46;;;;;;;6.60;5.60;;;;;;;2.86;100.00;101129.14;87784;274;25095;-75
2024/02/15 09:28:48;;;;;;;7.20;5.70;;;;;;;2.87;100.00;101127.80;87682;279;136548;-74
2024/02/15 09:30:52;;;;;;;4.80;4.40;;;;;;;2.87;100.00;101123.95;87526;271;22577;-73
2024/02/15 09:32:54;;;;;;;5.50;5.00;;;;;;;2.86;100.00;101120.39;87547;274;136880;-76
2024/02/15 09:34:56;;;;;;;6.80;6.00;;;;;;;2.84;100.00;101124.91;87623;269;22748;-79
2024/02/15 09:36:58;;;;;;;5.90;5.30;;;;;;;2.83;100.00;101125.35;87486;270;136286;-75
2024/02/15 09:39:00;;;;;;;7.90;6.90;;;;;;;2.82;100.00;101123.33;87768;271;22512;-77
2024/02/15 09:41:02;;;;;;;8.40;6.00;;;;;;;2.80;100.00;101122.08;87404;268;137864;-76
2024/02/15 09:43:08;;;;;;;6.40;5.20;;;;;;;2.79;100.00;101124.58;87428;272;25188;-75
2024/02/15 09:45:14;;;;;;;6.00;5.50;;;;;;;2.75;100.00;101124.04;87493;275;136601;-75
2024/02/15 09:47:18;;;;;;;7.50;6.70;;;;;;;2.72;100.00;101125.78;87922;278;22607;-74